Time;durP1;ratioP1;P1;durP2;ratioP2;P2;SDS_P1;SDS_P2;PMS_P1;PMS_P2;Temp;Humidity;BMP_temperature;BMP_pressure;BME280_temperature;BME280_humidity;BME280_pressure;Samples;Min_cycle;Max_cycle;Signal;HPM_P1;HPM_P2
2022/04/29 00:00:11;;;;;;;21.47;12.90;;;;;;;;;;5089461;28;20472;-77
2022/04/29 00:02:40;;;;;;;27.65;13.45;;;;;;;;;;5090981;28;20023;-76
2022/04/29 00:05:06;;;;;;;20.73;13.00;;;;;;;;;;5089426;28;20036;-76
2022/04/29 00:07:32;;;;;;;21.50;12.87;;;;;;;;;;5091030;28;20020;-77
2022/04/29 00:09:57;;;;;;;30.00;15.93;;;;;;;;;;5089558;28;20166;-76
2022/04/29 00:12:23;;;;;;;25.00;14.30;;;;;;;;;;5089681;28;20051;-79
2022/04/29 00:14:48;;;;;;;26.77;12.70;;;;;;;;;;5091161;28;20027;-78
2022/04/29 00:17:14;;;;;;;23.13;14.00;;;;;;;;;;5091014;28;20060;-78
2022/04/29 00:19:41;;;;;;;22.77;13.83;;;;;;;;;;5090835;28;20442;-78
2022/04/29 00:22:07;;;;;;;23.33;13.00;;;;;;;;;;5085283;28;20035;-79
2022/04/29 00:24:33;;;;;;;22.90;14.27;;;;;;;;;;5092760;28;20024;-78
2022/04/29 00:26:58;;;;;;;21.07;14.00;;;;;;;;;;5095145;28;20658;-80
2022/04/29 00:29:24;;;;;;;24.97;14.60;;;;;;;;;;5092748;28;20454;-80
2022/04/29 00:31:50;;;;;;;21.00;13.20;;;;;;;;;;5093054;28;20133;-78
2022/04/29 00:34:17;;;;;;;22.83;14.40;;;;;;;;;;5093286;28;20024;-78
2022/04/29 00:36:42;;;;;;;22.63;13.63;;;;;;;;;;5094284;28;20016;-79
2022/04/29 00:39:08;;;;;;;22.87;14.73;;;;;;;;;;5094219;28;20072;-77
2022/04/29 00:41:34;;;;;;;28.10;14.40;;;;;;;;;;5095072;28;20101;-77
2022/04/29 00:44:08;;;;;;;24.43;14.50;;;;;;;;;;5093050;28;20475;-79
2022/04/29 00:46:38;;;;;;;25.43;14.83;;;;;;;;;;5092707;28;20032;-78
2022/04/29 00:49:06;;;;;;;23.93;14.47;;;;;;;;;;5093054;28;20028;-79
2022/04/29 00:51:32;;;;;;;20.97;13.53;;;;;;;;;;5094381;28;20036;-78
2022/04/29 00:53:58;;;;;;;22.67;15.53;;;;;;;;;;5094279;28;20028;-77
2022/04/29 00:56:28;;;;;;;25.00;15.17;;;;;;;;;;5092611;28;20364;-81
2022/04/29 00:59:09;;;;;;;21.77;14.50;;;;;;;;;;5093978;28;20387;-77
2022/04/29 01:01:37;;;;;;;22.80;14.13;;;;;;;;;;5081667;28;20054;-78
2022/04/29 01:04:04;;;;;;;21.13;13.70;;;;;;;;;;5094824;28;20046;-77
2022/04/29 01:06:30;;;;;;;25.30;14.57;;;;;;;;;;5093087;28;20445;-80
2022/04/29 01:08:56;;;;;;;26.63;15.20;;;;;;;;;;5092302;28;20110;-78
2022/04/29 01:11:24;;;;;;;28.67;15.70;;;;;;;;;;5093942;28;20012;-78
2022/04/29 01:13:51;;;;;;;24.33;14.07;;;;;;;;;;5094074;28;20059;-78
2022/04/29 01:16:18;;;;;;;25.20;14.40;;;;;;;;;;5093244;28;20062;-79
2022/04/29 01:18:45;;;;;;;23.50;15.07;;;;;;;;;;5091681;28;20371;-79
2022/04/29 01:21:12;;;;;;;27.70;15.83;;;;;;;;;;5085714;28;20542;-79
2022/04/29 01:23:38;;;;;;;26.80;15.27;;;;;;;;;;5081563;28;20073;-78
2022/04/29 01:26:07;;;;;;;23.00;14.47;;;;;;;;;;5092475;28;20407;-77
2022/04/29 01:28:35;;;;;;;23.73;14.50;;;;;;;;;;5092220;28;20050;-79
2022/04/29 01:31:03;;;;;;;21.70;14.23;;;;;;;;;;5093205;28;20036;-78
2022/04/29 01:33:30;;;;;;;26.10;14.53;;;;;;;;;;5092657;28;20559;-77
2022/04/29 01:35:56;;;;;;;44.80;17.70;;;;;;;;;;5093038;28;20024;-77
2022/04/29 01:38:22;;;;;;;26.23;15.63;;;;;;;;;;5093351;28;20035;-76
2022/04/29 01:40:48;;;;;;;24.70;14.53;;;;;;;;;;5091584;28;20028;-78
2022/04/29 01:43:13;;;;;;;24.50;15.50;;;;;;;;;;5091179;28;20039;-77
2022/04/29 01:45:39;;;;;;;28.37;15.50;;;;;;;;;;5091875;28;20155;-78
2022/04/29 01:48:04;;;;;;;25.90;14.83;;;;;;;;;;5089445;28;20040;-78
2022/04/29 01:50:30;;;;;;;24.00;13.60;;;;;;;;;;5087788;28;20028;-76
2022/04/29 01:52:55;;;;;;;26.10;15.70;;;;;;;;;;5091257;28;20560;-78
2022/04/29 01:55:21;;;;;;;21.93;14.93;;;;;;;;;;5092780;28;20020;-77
2022/04/29 01:57:49;;;;;;;26.67;15.73;;;;;;;;;;5090889;28;20049;-77
2022/04/29 02:00:16;;;;;;;25.00;14.77;;;;;;;;;;5092647;28;20054;-78
2022/04/29 02:02:43;;;;;;;26.13;15.53;;;;;;;;;;5092404;28;20055;-77
2022/04/29 02:05:09;;;;;;;27.67;16.10;;;;;;;;;;5091615;28;20480;-77
2022/04/29 02:07:34;;;;;;;23.83;14.40;;;;;;;;;;5090766;28;20024;-79
2022/04/29 02:10:00;;;;;;;28.70;14.73;;;;;;;;;;5091059;28;20460;-78
2022/04/29 02:12:26;;;;;;;26.80;14.83;;;;;;;;;;5092436;28;20348;-77
2022/04/29 02:14:51;;;;;;;23.00;15.40;;;;;;;;;;5091575;28;20479;-79
2022/04/29 02:17:16;;;;;;;22.70;14.67;;;;;;;;;;5092472;28;20054;-78
2022/04/29 02:19:42;;;;;;;25.93;16.53;;;;;;;;;;5090922;28;20032;-77
2022/04/29 02:22:08;;;;;;;25.60;16.33;;;;;;;;;;5090984;28;20508;-78
2022/04/29 02:24:34;;;;;;;26.30;15.90;;;;;;;;;;5093120;28;20376;-78
2022/04/29 02:27:02;;;;;;;25.20;15.40;;;;;;;;;;5092869;28;20032;-77
2022/04/29 02:29:28;;;;;;;28.87;15.70;;;;;;;;;;5091391;28;20072;-77
2022/04/29 02:31:55;;;;;;;27.13;15.20;;;;;;;;;;5091324;28;20039;-77
2022/04/29 02:34:20;;;;;;;27.80;15.70;;;;;;;;;;5092497;28;20028;-77
2022/04/29 02:36:47;;;;;;;28.93;16.27;;;;;;;;;;5092187;28;20034;-78
2022/04/29 02:39:13;;;;;;;30.23;16.00;;;;;;;;;;5091170;28;20102;-78
2022/04/29 02:41:38;;;;;;;25.67;15.80;;;;;;;;;;5091031;28;20032;-77
2022/04/29 02:44:04;;;;;;;24.73;15.20;;;;;;;;;;5092198;28;20024;-78
2022/04/29 02:46:30;;;;;;;26.03;15.53;;;;;;;;;;5090559;28;20491;-79
2022/04/29 02:48:55;;;;;;;23.60;15.93;;;;;;;;;;5091009;28;20032;-79
2022/04/29 02:51:21;;;;;;;25.43;15.67;;;;;;;;;;5093072;28;20407;-77
2022/04/29 02:53:46;;;;;;;27.00;15.67;;;;;;;;;;5089989;28;20044;-79
2022/04/29 02:56:12;;;;;;;23.30;14.87;;;;;;;;;;5087783;28;20444;-80
2022/04/29 02:58:37;;;;;;;26.07;16.20;;;;;;;;;;5090656;28;20089;-78
2022/04/29 03:01:03;;;;;;;32.17;16.00;;;;;;;;;;5090849;28;20510;-77
2022/04/29 03:03:29;;;;;;;26.67;15.57;;;;;;;;;;5091926;28;20024;-77
2022/04/29 03:05:55;;;;;;;28.03;14.93;;;;;;;;;;5090834;28;20069;-78
2022/04/29 03:08:21;;;;;;;26.33;15.93;;;;;;;;;;5090403;28;20032;-78
2022/04/29 03:10:47;;;;;;;28.83;14.40;;;;;;;;;;5091019;28;20032;-77
2022/04/29 03:13:13;;;;;;;27.30;15.57;;;;;;;;;;5089932;28;20047;-78
2022/04/29 03:15:40;;;;;;;25.17;14.67;;;;;;;;;;5092236;28;20413;-77
2022/04/29 03:18:21;;;;;;;26.33;16.00;;;;;;;;;;5092651;28;20515;-77
2022/04/29 03:20:49;;;;;;;27.13;15.60;;;;;;;;;;5092193;28;20023;-77
2022/04/29 03:23:14;;;;;;;26.90;14.63;;;;;;;;;;5091896;28;20027;-78
2022/04/29 03:25:41;;;;;;;28.30;14.70;;;;;;;;;;5090639;28;20086;-78
2022/04/29 03:28:07;;;;;;;25.70;15.17;;;;;;;;;;5090522;28;20407;-77
2022/04/29 03:30:33;;;;;;;26.97;15.40;;;;;;;;;;5090178;28;20035;-78
2022/04/29 03:33:00;;;;;;;26.23;16.30;;;;;;;;;;5071443;28;20047;-78
2022/04/29 03:35:26;;;;;;;28.07;15.57;;;;;;;;;;5091416;28;20540;-79
2022/04/29 03:37:53;;;;;;;25.23;14.73;;;;;;;;;;5090750;28;20035;-77
2022/04/29 03:40:22;;;;;;;28.40;16.50;;;;;;;;;;5092120;28;20564;-77
2022/04/29 03:42:53;;;;;;;24.70;15.50;;;;;;;;;;5091725;28;20035;-77
2022/04/29 03:45:20;;;;;;;25.20;16.30;;;;;;;;;;5091252;28;20055;-79
2022/04/29 03:47:45;;;;;;;26.33;15.73;;;;;;;;;;5090362;28;20441;-78
2022/04/29 03:50:12;;;;;;;27.27;16.47;;;;;;;;;;5091490;28;20031;-77
2022/04/29 03:52:47;;;;;;;29.50;15.13;;;;;;;;;;5091135;28;20032;-77
2022/04/29 03:55:14;;;;;;;27.90;14.87;;;;;;;;;;5091661;28;20028;-77
2022/04/29 03:57:40;;;;;;;28.20;15.93;;;;;;;;;;5090667;28;20052;-80
2022/04/29 04:00:06;;;;;;;30.93;16.60;;;;;;;;;;5093696;28;20073;-79
2022/04/29 04:02:32;;;;;;;28.73;16.20;;;;;;;;;;5093629;28;20031;-78
2022/04/29 04:04:57;;;;;;;30.23;16.47;;;;;;;;;;5095282;28;20024;-79
2022/04/29 04:07:23;;;;;;;24.80;14.47;;;;;;;;;;5095933;28;20016;-79
2022/04/29 04:09:49;;;;;;;27.33;14.70;;;;;;;;;;5095309;28;20032;-78
2022/04/29 04:12:15;;;;;;;29.03;16.33;;;;;;;;;;5095492;28;20043;-77
2022/04/29 04:14:41;;;;;;;25.60;15.17;;;;;;;;;;5092907;28;20066;-80
2022/04/29 04:17:07;;;;;;;28.33;16.00;;;;;;;;;;5095144;28;20063;-79
2022/04/29 04:19:34;;;;;;;33.13;15.70;;;;;;;;;;5092939;28;20486;-78
2022/04/29 04:22:00;;;;;;;33.10;16.10;;;;;;;;;;5095107;28;20032;-76
2022/04/29 04:24:25;;;;;;;24.77;15.30;;;;;;;;;;5092766;28;20375;-78
2022/04/29 04:26:51;;;;;;;27.80;14.53;;;;;;;;;;5094021;28;20028;-77
2022/04/29 04:29:16;;;;;;;28.57;15.80;;;;;;;;;;5094319;28;20040;-78
2022/04/29 04:31:41;;;;;;;24.90;16.30;;;;;;;;;;5094582;28;20028;-78
2022/04/29 04:36:54;;;;;;;30.87;16.27;;;;;;;;;;5094898;28;20031;-76
2022/04/29 04:39:21;;;;;;;36.20;16.80;;;;;;;;;;5095028;28;20028;-77
2022/04/29 04:41:46;;;;;;;24.37;14.53;;;;;;;;;;5093850;28;20406;-78
2022/04/29 04:44:12;;;;;;;32.27;15.07;;;;;;;;;;5094757;28;20027;-77
2022/04/29 04:46:38;;;;;;;27.33;16.13;;;;;;;;;;5094640;28;20032;-78
2022/04/29 04:49:04;;;;;;;32.67;18.73;;;;;;;;;;5094284;28;20035;-76
2022/04/29 04:51:29;;;;;;;26.27;14.80;;;;;;;;;;5094111;28;20027;-80
2022/04/29 04:53:55;;;;;;;26.13;15.43;;;;;;;;;;5092800;28;20525;-77
2022/04/29 04:56:21;;;;;;;26.13;15.43;;;;;;;;;;5072813;28;20401;-77
2022/04/29 04:58:46;;;;;;;31.23;15.83;;;;;;;;;;5093524;28;20110;-78
2022/04/29 05:01:12;;;;;;;30.10;15.23;;;;;;;;;;5094720;28;20038;-78
2022/04/29 05:03:37;;;;;;;22.47;14.57;;;;;;;;;;5094302;28;20387;-76
2022/04/29 05:06:03;;;;;;;23.50;15.17;;;;;;;;;;5092383;28;20028;-78
2022/04/29 05:08:29;;;;;;;27.87;17.57;;;;;;;;;;5090049;28;20386;-78
2022/04/29 05:10:54;;;;;;;23.70;15.07;;;;;;;;;;5081199;28;20487;-80
2022/04/29 05:13:21;;;;;;;26.77;16.83;;;;;;;;;;5083228;28;20040;-82
2022/04/29 05:15:49;;;;;;;24.93;14.90;;;;;;;;;;5082362;28;20040;-78
2022/04/29 05:18:16;;;;;;;32.70;20.63;;;;;;;;;;5085106;28;20507;-80
2022/04/29 05:20:41;;;;;;;25.50;16.93;;;;;;;;;;5081241;28;20058;-81
2022/04/29 05:23:08;;;;;;;28.73;15.03;;;;;;;;;;5089288;28;20040;-79
2022/04/29 05:25:36;;;;;;;27.37;16.00;;;;;;;;;;5091024;28;20035;-78
2022/04/29 05:28:03;;;;;;;26.37;14.33;;;;;;;;;;5082589;28;20400;-80
2022/04/29 05:30:31;;;;;;;32.10;16.63;;;;;;;;;;5085233;28;20525;-78
2022/04/29 05:32:57;;;;;;;24.37;15.40;;;;;;;;;;5081113;28;20043;-79
2022/04/29 05:35:23;;;;;;;31.83;16.63;;;;;;;;;;5089715;28;20023;-79
2022/04/29 05:37:49;;;;;;;31.53;18.00;;;;;;;;;;5086566;28;20420;-79
2022/04/29 05:43:00;;;;;;;27.00;15.70;;;;;;;;;;5075832;28;20069;-77
2022/04/29 05:45:25;;;;;;;27.47;17.23;;;;;;;;;;5078586;28;20464;-80
2022/04/29 05:47:51;;;;;;;36.70;22.40;;;;;;;;;;5084557;28;20032;-80
2022/04/29 05:50:16;;;;;;;36.47;18.00;;;;;;;;;;5089975;28;20032;-81
2022/04/29 05:52:42;;;;;;;33.23;17.40;;;;;;;;;;5090075;28;20549;-81
2022/04/29 05:55:08;;;;;;;28.03;16.67;;;;;;;;;;5082318;28;20036;-79
2022/04/29 05:57:34;;;;;;;28.57;16.87;;;;;;;;;;5087224;28;20089;-79
2022/04/29 05:59:59;;;;;;;29.33;16.57;;;;;;;;;;5077984;28;20110;-79
2022/04/29 06:02:26;;;;;;;30.57;16.77;;;;;;;;;;5073904;28;20036;-78
2022/04/29 06:04:51;;;;;;;27.90;16.57;;;;;;;;;;5080011;28;20067;-78
2022/04/29 06:07:17;;;;;;;29.13;17.77;;;;;;;;;;5087733;28;20121;-80
2022/04/29 06:09:43;;;;;;;36.13;17.93;;;;;;;;;;5081302;28;20080;-78
2022/04/29 06:12:09;;;;;;;27.30;16.70;;;;;;;;;;5078696;28;20790;-79
2022/04/29 06:14:35;;;;;;;52.93;22.63;;;;;;;;;;5083725;28;20561;-79
2022/04/29 06:17:01;;;;;;;23.70;16.63;;;;;;;;;;5080337;28;20468;-80
2022/04/29 06:19:26;;;;;;;28.70;18.67;;;;;;;;;;5087647;28;20038;-78
2022/04/29 06:21:52;;;;;;;29.53;17.53;;;;;;;;;;5085243;28;20035;-80
2022/04/29 06:24:18;;;;;;;36.80;17.47;;;;;;;;;;5085253;28;20521;-79
2022/04/29 06:26:43;;;;;;;28.97;16.53;;;;;;;;;;5074414;28;20123;-79
2022/04/29 06:29:09;;;;;;;32.63;18.00;;;;;;;;;;5079160;28;20092;-82
2022/04/29 06:31:35;;;;;;;25.23;15.87;;;;;;;;;;5062872;28;20596;-80
2022/04/29 06:34:01;;;;;;;29.40;16.77;;;;;;;;;;5089166;28;20028;-82
2022/04/29 06:36:27;;;;;;;28.97;17.43;;;;;;;;;;5084608;28;20047;-81
2022/04/29 06:38:52;;;;;;;30.03;17.20;;;;;;;;;;5084826;28;20035;-79
2022/04/29 06:41:18;;;;;;;32.73;16.23;;;;;;;;;;5088958;28;20032;-80
2022/04/29 06:43:44;;;;;;;28.92;18.23;;;;;;;;;;5083987;28;20172;-79
2022/04/29 06:46:10;;;;;;;27.93;16.17;;;;;;;;;;5073411;28;20029;-80
2022/04/29 06:48:36;;;;;;;31.52;17.75;;;;;;;;;;5077404;28;20040;-78
2022/04/29 06:51:01;;;;;;;31.23;17.55;;;;;;;;;;5084354;28;20025;-77
2022/04/29 06:53:30;;;;;;;26.95;17.10;;;;;;;;;;5083351;28;20095;-80
2022/04/29 06:55:56;;;;;;;36.25;17.20;;;;;;;;;;5084282;28;20040;-80
2022/04/29 06:58:27;;;;;;;23.50;16.30;;;;;;;;;;5082535;28;20088;-79
2022/04/29 07:00:52;;;;;;;29.27;17.33;;;;;;;;;;5080121;28;20059;-81
2022/04/29 07:03:18;;;;;;;32.90;17.67;;;;;;;;;;5085199;28;20038;-76
2022/04/29 07:05:44;;;;;;;28.67;17.23;;;;;;;;;;5078011;28;20032;-79
2022/04/29 07:08:10;;;;;;;24.42;14.30;;;;;;;;;;5073744;28;20032;-82
2022/04/29 07:10:35;;;;;;;26.48;13.68;;;;;;;;;;5082675;28;20028;-81
2022/04/29 07:13:03;;;;;;;27.08;14.93;;;;;;;;;;5082032;28;20159;-79
2022/04/29 07:15:28;;;;;;;23.60;14.88;;;;;;;;;;5081039;28;20025;-81
2022/04/29 07:17:54;;;;;;;26.27;15.55;;;;;;;;;;5084612;28;20031;-80
2022/04/29 07:20:20;;;;;;;28.80;15.95;;;;;;;;;;5075667;28;20055;-81
2022/04/29 07:22:45;;;;;;;30.58;15.82;;;;;;;;;;5081415;28;20036;-79
2022/04/29 07:25:14;;;;;;;28.95;16.67;;;;;;;;;;5080699;28;20020;-78
2022/04/29 07:27:41;;;;;;;27.83;16.70;;;;;;;;;;5082513;28;20139;-77
2022/04/29 07:30:08;;;;;;;21.13;14.57;;;;;;;;;;5079941;28;20534;-78
2022/04/29 07:32:33;;;;;;;22.02;14.23;;;;;;;;;;5079819;28;20019;-78
2022/04/29 07:43:16;;;;;;;26.00;15.55;;;;;;;;;;5081768;28;20042;-78
2022/04/29 07:45:42;;;;;;;24.25;15.60;;;;;;;;;;5082658;28;20422;-80
2022/04/29 07:48:08;;;;;;;21.90;13.73;;;;;;;;;;5084652;28;20491;-79
2022/04/29 07:50:37;;;;;;;30.02;15.00;;;;;;;;;;5080048;28;20108;-79
2022/04/29 07:53:08;;;;;;;24.17;14.52;;;;;;;;;;5081628;28;20028;-80
2022/04/29 07:55:34;;;;;;;26.10;15.50;;;;;;;;;;5080273;28;20047;-82
2022/04/29 07:58:00;;;;;;;26.92;15.48;;;;;;;;;;5070797;28;20584;-80
2022/04/29 08:00:26;;;;;;;26.85;16.90;;;;;;;;;;5082320;28;20503;-78
2022/04/29 08:02:51;;;;;;;23.42;14.30;;;;;;;;;;5078007;28;20218;-78
2022/04/29 08:05:18;;;;;;;34.50;16.10;;;;;;;;;;5082555;28;20016;-78
2022/04/29 08:07:47;;;;;;;28.90;15.90;;;;;;;;;;5080366;28;20043;-83
2022/04/29 08:10:13;;;;;;;29.38;17.00;;;;;;;;;;5079495;28;20028;-77
2022/04/29 08:12:38;;;;;;;31.08;15.25;;;;;;;;;;5080432;28;20033;-77
2022/04/29 08:15:05;;;;;;;31.25;16.10;;;;;;;;;;5080546;28;20070;-80
2022/04/29 08:17:33;;;;;;;23.10;14.90;;;;;;;;;;5080678;28;20107;-74
2022/04/29 08:20:02;;;;;;;24.30;14.60;;;;;;;;;;5081688;28;20458;-80
2022/04/29 08:22:27;;;;;;;24.02;13.88;;;;;;;;;;5083000;28;20035;-79
2022/04/29 08:24:53;;;;;;;26.13;15.65;;;;;;;;;;5079115;28;20043;-81
2022/04/29 08:27:20;;;;;;;29.73;16.05;;;;;;;;;;5079396;28;20040;-79
2022/04/29 08:29:45;;;;;;;26.33;15.38;;;;;;;;;;5079522;28;20036;-78
2022/04/29 08:32:11;;;;;;;25.48;13.93;;;;;;;;;;5085398;28;20047;-78
2022/04/29 08:34:37;;;;;;;24.42;15.32;;;;;;;;;;5077374;28;20028;-80
2022/04/29 08:37:03;;;;;;;29.23;14.50;;;;;;;;;;5080029;28;20031;-79
2022/04/29 08:39:30;;;;;;;22.45;14.52;;;;;;;;;;5083947;28;20024;-80
2022/04/29 08:41:59;;;;;;;24.33;14.38;;;;;;;;;;5080867;28;20088;-77
2022/04/29 08:44:29;;;;;;;23.63;12.65;;;;;;;;;;5077345;28;20831;-77
2022/04/29 08:46:56;;;;;;;19.52;13.65;;;;;;;;;;5080776;28;20024;-77
2022/04/29 08:49:26;;;;;;;22.63;13.43;;;;;;;;;;5067438;28;20075;-78
2022/04/29 08:51:53;;;;;;;35.05;14.35;;;;;;;;;;5086402;28;20043;-79
2022/04/29 09:00:04;;;;;;;17.48;9.05;;;;;;;;;;5087225;28;20079;-79
2022/04/29 09:02:43;;;;;;;20.70;13.43;;;;;;;;;;5086369;28;20035;-78
2022/04/29 09:05:13;;;;;;;20.83;11.93;;;;;;;;;;5093345;28;20081;-79
2022/04/29 09:07:52;;;;;;;16.35;10.20;;;;;;;;;;5088822;28;20477;-79
2022/04/29 09:10:26;;;;;;;13.40;8.73;;;;;;;;;;5090195;28;20028;-82
2022/04/29 09:12:52;;;;;;;13.90;9.15;;;;;;;;;;5072646;28;20059;-79
2022/04/29 09:15:21;;;;;;;14.35;9.30;;;;;;;;;;5089407;28;20076;-79
2022/04/29 09:17:51;;;;;;;13.70;8.60;;;;;;;;;;5089745;28;20047;-79
2022/04/29 09:20:21;;;;;;;16.52;9.35;;;;;;;;;;5086933;28;20032;-78
2022/04/29 09:22:50;;;;;;;12.13;8.30;;;;;;;;;;5086060;28;20385;-77
2022/04/29 09:25:17;;;;;;;14.38;8.25;;;;;;;;;;5087691;28;20047;-78
2022/04/29 09:28:01;;;;;;;16.40;8.10;;;;;;;;;;5093588;28;20052;-78
2022/04/29 09:30:38;;;;;;;17.98;8.27;;;;;;;;;;5069175;28;20032;-80
2022/04/29 09:33:20;;;;;;;13.02;7.32;;;;;;;;;;5091634;28;20460;-78
2022/04/29 09:35:46;;;;;;;14.70;7.90;;;;;;;;;;5090001;28;20047;-78
2022/04/29 09:40:58;;;;;;;12.88;6.22;;;;;;;;;;5085330;28;20059;-80
2022/04/29 09:43:44;;;;;;;11.32;7.60;;;;;;;;;;5088815;28;20020;-82
2022/04/29 09:46:19;;;;;;;12.80;7.60;;;;;;;;;;5089479;28;20040;-78
2022/04/29 09:49:11;;;;;;;14.82;8.10;;;;;;;;;;5088938;28;20028;-77
2022/04/29 09:51:53;;;;;;;13.35;8.25;;;;;;;;;;5091579;28;20028;-80
2022/04/29 09:54:25;;;;;;;12.93;7.47;;;;;;;;;;5074022;28;20039;-76
2022/04/29 09:57:10;;;;;;;;;;;;;;;;;;5093206;28;20040;-78
2022/04/29 09:59:47;;;;;;;15.48;8.05;;;;;;;;;;5094547;28;19915;-77
2022/04/29 10:02:16;;;;;;;12.32;8.15;;;;;;;;;;5088710;28;20093;-82
2022/04/29 10:04:45;;;;;;;14.75;9.23;;;;;;;;;;5088600;28;20040;-77
2022/04/29 10:07:13;;;;;;;9.60;7.57;;;;;;;;;;5086596;28;20040;-78
2022/04/29 10:09:44;;;;;;;11.68;8.07;;;;;;;;;;5069303;28;20048;-77
2022/04/29 10:12:15;;;;;;;14.68;8.82;;;;;;;;;;5064871;28;20016;-78
2022/04/29 10:14:44;;;;;;;10.57;7.72;;;;;;;;;;5086486;28;20051;-78
2022/04/29 10:22:50;;;;;;;13.23;7.53;;;;;;;;;;5092584;28;20038;-79
2022/04/29 10:25:21;;;;;;;15.38;7.40;;;;;;;;;;5076251;28;20040;-80
2022/04/29 10:27:49;;;;;;;9.52;7.32;;;;;;;;;;5087713;28;20038;-78
2022/04/29 10:30:33;;;;;;;11.85;7.25;;;;;;;;;;5092008;28;20036;-79
2022/04/29 10:33:24;;;;;;;10.25;7.45;;;;;;;;;;5070637;28;20028;-79
2022/04/29 10:35:56;;;;;;;10.00;6.38;;;;;;;;;;5089731;28;20024;-79
2022/04/29 10:38:31;;;;;;;8.95;6.32;;;;;;;;;;5090240;28;20034;-81
2022/04/29 10:41:27;;;;;;;10.18;6.88;;;;;;;;;;5089471;28;20146;-79
2022/04/29 10:43:53;;;;;;;12.98;6.80;;;;;;;;;;5089173;28;20034;-80
2022/04/29 10:46:41;;;;;;;11.05;7.30;;;;;;;;;;5088166;28;20036;-80
2022/04/29 10:49:23;;;;;;;11.18;7.60;;;;;;;;;;5080439;28;20025;-77
2022/04/29 10:51:51;;;;;;;12.30;6.78;;;;;;;;;;5080233;28;20051;-80
2022/04/29 10:54:43;;;;;;;16.48;7.13;;;;;;;;;;5082466;28;20032;-78
2022/04/29 10:57:12;;;;;;;13.32;7.65;;;;;;;;;;5083564;28;20047;-78
2022/04/29 11:00:00;;;;;;;12.23;7.60;;;;;;;;;;5080682;28;20051;-78
2022/04/29 11:02:29;;;;;;;12.05;7.65;;;;;;;;;;5084662;28;20045;-78
2022/04/29 11:04:59;;;;;;;13.30;7.50;;;;;;;;;;5084124;28;20028;-79
2022/04/29 11:07:39;;;;;;;14.73;7.88;;;;;;;;;;5090229;28;20039;-78
2022/04/29 11:10:07;;;;;;;10.93;7.28;;;;;;;;;;5084185;28;20574;-77
2022/04/29 11:12:34;;;;;;;13.38;9.32;;;;;;;;;;5066472;28;20122;-81
2022/04/29 11:15:11;;;;;;;11.20;6.90;;;;;;;;;;5071821;28;20476;-78
2022/04/29 11:17:38;;;;;;;12.40;7.30;;;;;;;;;;5079460;28;20064;-76
2022/04/29 11:20:22;;;;;;;11.35;7.18;;;;;;;;;;5082266;28;20035;-80
2022/04/29 11:25:57;;;;;;;17.67;7.45;;;;;;;;;;5077349;28;20153;-81
2022/04/29 11:28:27;;;;;;;14.73;7.40;;;;;;;;;;5086589;28;20036;-79
2022/04/29 11:31:04;;;;;;;16.25;8.45;;;;;;;;;;5086197;28;21344;-80
2022/04/29 11:33:31;;;;;;;14.18;6.85;;;;;;;;;;5079299;28;20384;-77
2022/04/29 11:36:12;;;;;;;12.20;6.90;;;;;;;;;;5081057;28;20092;-81
2022/04/29 11:38:43;;;;;;;13.10;6.68;;;;;;;;;;5080632;28;20062;-78
2022/04/29 11:41:17;;;;;;;11.18;7.15;;;;;;;;;;5087447;28;20040;-80
2022/04/29 11:43:54;;;;;;;12.60;6.82;;;;;;;;;;5085585;28;20106;-78
2022/04/29 11:46:21;;;;;;;11.57;7.05;;;;;;;;;;5081230;28;21699;-82
2022/04/29 11:49:03;;;;;;;10.20;7.05;;;;;;;;;;5089020;28;20039;-77
2022/04/29 11:51:32;;;;;;;14.07;7.13;;;;;;;;;;5089439;28;20035;-76
2022/04/29 11:54:04;;;;;;;20.92;8.45;;;;;;;;;;5056850;28;20038;-79
2022/04/29 11:56:35;;;;;;;12.05;7.40;;;;;;;;;;5079439;28;20024;-78
2022/04/29 11:59:03;;;;;;;11.52;7.50;;;;;;;;;;5079370;28;20027;-77
2022/04/29 12:01:30;;;;;;;14.40;7.82;;;;;;;;;;5077706;28;20047;-78
2022/04/29 12:03:56;;;;;;;12.40;8.02;;;;;;;;;;5079472;28;20032;-79
2022/04/29 12:06:22;;;;;;;11.18;8.27;;;;;;;;;;5078671;28;20028;-77
2022/04/29 12:08:48;;;;;;;16.10;7.95;;;;;;;;;;5078444;28;20476;-80
2022/04/29 12:11:24;;;;;;;15.15;7.40;;;;;;;;;;5079430;28;20109;-78
2022/04/29 12:13:52;;;;;;;12.02;7.78;;;;;;;;;;5081649;28;20044;-78
2022/04/29 12:16:20;;;;;;;14.30;7.60;;;;;;;;;;5084002;28;20466;-79
2022/04/29 12:18:55;;;;;;;12.93;7.75;;;;;;;;;;5079904;28;20093;-77
2022/04/29 12:21:25;;;;;;;11.52;8.32;;;;;;;;;;5084102;28;20582;-80
2022/04/29 12:23:56;;;;;;;9.80;6.97;;;;;;;;;;5082239;28;20024;-79
2022/04/29 12:26:22;;;;;;;30.20;15.82;;;;;;;;;;5086119;28;20031;-77
2022/04/29 12:28:58;;;;;;;12.57;7.75;;;;;;;;;;5081778;28;20607;-80
2022/04/29 12:37:14;;;;;;;12.07;6.85;;;;;;;;;;5083447;28;20116;-80
2022/04/29 12:39:43;;;;;;;10.68;7.13;;;;;;;;;;5081806;28;20024;-80
2022/04/29 12:42:11;;;;;;;12.38;5.75;;;;;;;;;;5087873;28;20094;-81
2022/04/29 12:45:24;;;;;;;12.55;6.90;;;;;;;;;;5092401;28;20032;-78
2022/04/29 12:48:11;;;;;;;11.88;6.53;;;;;;;;;;5083943;28;20041;-81
2022/04/29 12:50:43;;;;;;;13.52;6.50;;;;;;;;;;5079276;28;20029;-78
2022/04/29 12:53:19;;;;;;;9.98;6.40;;;;;;;;;;5087820;28;20028;-80
2022/04/29 12:55:53;;;;;;;11.43;6.78;;;;;;;;;;5089705;28;20032;-81
2022/04/29 12:58:28;;;;;;;11.05;6.15;;;;;;;;;;5073651;28;20028;-80
2022/04/29 13:00:57;;;;;;;9.25;6.07;;;;;;;;;;5082318;28;20028;-79
2022/04/29 13:03:26;;;;;;;13.30;6.88;;;;;;;;;;5082529;28;20029;-79
2022/04/29 13:05:52;;;;;;;9.20;6.40;;;;;;;;;;5081156;28;20111;-79
2022/04/29 13:08:18;;;;;;;8.82;6.03;;;;;;;;;;5082742;28;20110;-79
2022/04/29 13:10:52;;;;;;;17.48;7.03;;;;;;;;;;5082628;28;20197;-80
2022/04/29 13:13:23;;;;;;;11.02;5.70;;;;;;;;;;5100976;28;20127;-79
2022/04/29 13:15:54;;;;;;;12.85;5.93;;;;;;;;;;5083030;28;20558;-80
2022/04/29 13:18:29;;;;;;;11.15;5.50;;;;;;;;;;5094794;28;20058;-82
2022/04/29 13:20:54;;;;;;;12.60;5.38;;;;;;;;;;5096096;28;20051;-80
2022/04/29 13:23:20;;;;;;;9.77;6.05;;;;;;;;;;5090789;28;20028;-82
2022/04/29 13:25:47;;;;;;;9.02;6.30;;;;;;;;;;5089019;28;20124;-79
2022/04/29 13:28:12;;;;;;;7.93;5.97;;;;;;;;;;5076279;28;20025;-78
2022/04/29 13:30:39;;;;;;;9.60;5.82;;;;;;;;;;5086826;28;20050;-78
2022/04/29 13:33:07;;;;;;;9.43;6.38;;;;;;;;;;5089360;28;20418;-81
2022/04/29 13:35:34;;;;;;;9.57;5.95;;;;;;;;;;5087033;28;20020;-81
2022/04/29 13:38:00;;;;;;;9.75;5.97;;;;;;;;;;5085316;28;20517;-78
2022/04/29 13:40:25;;;;;;;12.00;5.90;;;;;;;;;;5095299;28;20019;-79
2022/04/29 13:42:54;;;;;;;7.40;5.97;;;;;;;;;;5093033;28;20476;-79
2022/04/29 13:45:20;;;;;;;7.80;5.80;;;;;;;;;;5082702;28;20134;-80
2022/04/29 13:47:46;;;;;;;8.98;5.80;;;;;;;;;;5093246;28;20030;-81
2022/04/29 13:50:12;;;;;;;11.18;6.28;;;;;;;;;;5092588;28;20142;-78
2022/04/29 13:55:23;;;;;;;8.48;5.63;;;;;;;;;;5083232;28;20043;-78
2022/04/29 13:57:49;;;;;;;9.45;6.30;;;;;;;;;;5092408;28;20028;-79
2022/04/29 14:00:16;;;;;;;9.30;5.22;;;;;;;;;;5092289;28;20112;-79
2022/04/29 14:02:49;;;;;;;8.07;5.68;;;;;;;;;;5084878;28;20039;-78
2022/04/29 14:05:15;;;;;;;6.75;5.22;;;;;;;;;;5090637;28;20024;-80
2022/04/29 14:07:44;;;;;;;10.15;5.65;;;;;;;;;;5085715;28;20033;-81
2022/04/29 14:10:11;;;;;;;8.98;5.75;;;;;;;;;;5069876;28;20035;-81
2022/04/29 14:12:38;;;;;;;13.93;5.60;;;;;;;;;;5087528;28;20060;-80
2022/04/29 14:15:04;;;;;;;10.00;5.75;;;;;;;;;;5093737;28;20052;-78
2022/04/29 14:17:31;;;;;;;8.43;5.72;;;;;;;;;;5093069;28;20031;-82
2022/04/29 14:19:56;;;;;;;11.48;6.57;;;;;;;;;;5094509;28;20104;-83
2022/04/29 14:22:23;;;;;;;8.02;5.15;;;;;;;;;;5066213;28;20467;-80
2022/04/29 14:24:51;;;;;;;9.05;4.85;;;;;;;;;;5095109;28;20030;-79
2022/04/29 14:27:20;;;;;;;8.95;5.30;;;;;;;;;;5096171;28;20103;-80
2022/04/29 14:29:46;;;;;;;10.20;5.97;;;;;;;;;;5088368;28;20040;-78
2022/04/29 14:32:13;;;;;;;8.02;5.43;;;;;;;;;;5091043;28;20061;-79
2022/04/29 14:34:43;;;;;;;7.75;5.28;;;;;;;;;;5095856;28;20042;-79
2022/04/29 14:37:08;;;;;;;9.10;5.13;;;;;;;;;;5089020;28;20636;-81
2022/04/29 14:39:35;;;;;;;8.60;5.50;;;;;;;;;;5094151;28;20038;-80
2022/04/29 14:42:03;;;;;;;8.32;5.90;;;;;;;;;;5095614;28;20088;-79
2022/04/29 14:44:29;;;;;;;10.90;5.05;;;;;;;;;;5077731;28;20152;-80
2022/04/29 14:46:54;;;;;;;8.00;5.15;;;;;;;;;;5078108;28;20044;-81
2022/04/29 14:49:20;;;;;;;8.30;5.10;;;;;;;;;;5093790;28;20429;-78
2022/04/29 14:51:46;;;;;;;8.98;5.57;;;;;;;;;;5083858;28;20924;-78
2022/04/29 14:54:13;;;;;;;7.85;5.03;;;;;;;;;;5093757;28;20496;-79
2022/04/29 14:56:43;;;;;;;13.98;7.65;;;;;;;;;;5084527;28;20025;-80
2022/04/29 14:59:12;;;;;;;9.82;6.03;;;;;;;;;;5074137;28;20040;-81
2022/04/29 15:01:38;;;;;;;9.65;6.05;;;;;;;;;;5093351;28;20089;-78
2022/04/29 15:04:06;;;;;;;8.27;5.10;;;;;;;;;;5093364;28;20028;-79
2022/04/29 15:06:32;;;;;;;23.77;15.05;;;;;;;;;;5089139;28;20041;-81
2022/04/29 15:17:28;;;;;;;8.45;5.35;;;;;;;;;;5091298;28;20057;-81